createdAt,value
2023-04-25T00:00:20.344Z,21.50
2023-04-25T00:03:07.557Z,15.38
2023-04-25T00:05:57.707Z,21.38
2023-04-25T00:08:43.915Z,19.88
2023-04-25T00:11:31.874Z,25.52
2023-04-25T00:14:18.730Z,27.27
2023-04-25T00:17:05.330Z,16.60
2023-04-25T00:19:51.604Z,21.20
2023-04-25T00:22:39.444Z,23.30
2023-04-25T00:25:25.495Z,24.83
2023-04-25T00:28:11.935Z,26.38
2023-04-25T00:30:58.305Z,19.95
2023-04-25T00:33:45.021Z,14.85
2023-04-25T00:36:31.640Z,25.45
2023-04-25T00:39:19.548Z,22.23
2023-04-25T00:42:05.616Z,17.52
2023-04-25T00:44:52.137Z,20.52
2023-04-25T00:47:39.338Z,16.73
2023-04-25T00:50:26.242Z,15.38
2023-04-25T00:53:12.652Z,19.73
2023-04-25T00:56:00.549Z,18.38
2023-04-25T00:58:47.327Z,13.55
2023-04-25T01:01:34.212Z,11.57
2023-04-25T01:04:21.271Z,12.95
2023-04-25T01:07:08.015Z,14.80
2023-04-25T01:09:54.786Z,22.58
2023-04-25T01:12:43.103Z,19.17
2023-04-25T01:15:29.495Z,12.32
2023-04-25T01:18:16.009Z,16.17
2023-04-25T01:21:11.566Z,19.50
2023-04-25T01:23:59.627Z,9.45
2023-04-25T01:26:50.694Z,15.90
2023-04-25T01:29:41.645Z,16.60
2023-04-25T01:32:28.855Z,20.67
2023-04-25T01:35:15.390Z,19.40
2023-04-25T01:38:03.011Z,14.05
2023-04-25T01:40:52.667Z,24.23
2023-04-25T01:43:39.775Z,16.13
2023-04-25T01:46:26.789Z,16.85
2023-04-25T01:49:12.965Z,13.50
2023-04-25T01:52:00.810Z,19.73
2023-04-25T01:54:48.374Z,21.50
2023-04-25T01:57:35.676Z,21.08
2023-04-25T02:00:22.921Z,27.52
2023-04-25T02:03:10.041Z,24.17
2023-04-25T02:05:56.406Z,18.02
2023-04-25T02:08:43.077Z,14.88
2023-04-25T02:11:33.103Z,17.40
2023-04-25T02:14:40.869Z,18.75
2023-04-25T02:17:35.907Z,15.70
2023-04-25T02:20:23.158Z,14.77
2023-04-25T02:23:09.279Z,20.38
2023-04-25T02:25:56.219Z,25.10
2023-04-25T02:28:43.614Z,17.15
2023-04-25T02:31:29.627Z,17.98
2023-04-25T02:34:17.937Z,23.50
2023-04-25T02:37:04.153Z,21.63
2023-04-25T02:39:50.301Z,28.40
2023-04-25T02:42:36.722Z,18.08
2023-04-25T02:45:24.497Z,20.80
2023-04-25T02:48:11.022Z,18.08
2023-04-25T02:50:57.197Z,22.65
2023-04-25T02:53:43.736Z,23.27
2023-04-25T02:56:29.732Z,29.00
2023-04-25T02:59:16.709Z,24.92
2023-04-25T03:02:04.556Z,23.52
2023-04-25T03:04:51.117Z,24.05
2023-04-25T03:07:37.660Z,25.13
2023-04-25T03:10:23.790Z,22.10
2023-04-25T03:13:10.127Z,20.90
2023-04-25T03:15:56.648Z,29.30
2023-04-25T03:18:44.156Z,20.85
2023-04-25T03:21:30.529Z,20.65
2023-04-25T03:24:18.010Z,18.50
2023-04-25T03:27:04.140Z,21.33
2023-04-25T03:29:50.509Z,23.45
2023-04-25T03:32:37.252Z,23.15
2023-04-25T03:35:25.938Z,21.50
2023-04-25T03:38:12.659Z,19.38
2023-04-25T03:41:00.131Z,14.98
2023-04-25T03:44:07.971Z,14.13
2023-04-25T03:46:54.626Z,10.05
2023-04-25T03:49:41.282Z,10.02
2023-04-25T03:52:29.641Z,8.23
2023-04-25T03:55:16.095Z,8.77
2023-04-25T03:58:02.937Z,13.13
2023-04-25T04:00:49.245Z,5.57
2023-04-25T04:03:36.239Z,8.00
2023-04-25T04:06:23.063Z,6.50
2023-04-25T04:09:16.570Z,10.07
2023-04-25T04:12:04.029Z,10.02
2023-04-25T04:14:52.133Z,7.07
2023-04-25T04:17:38.739Z,8.27
2023-04-25T04:20:25.414Z,8.63
2023-04-25T04:23:12.625Z,9.30
2023-04-25T04:26:00.780Z,8.90
2023-04-25T04:29:25.751Z,7.80
2023-04-25T04:32:28.515Z,9.02
2023-04-25T04:35:15.395Z,6.63
2023-04-25T04:38:02.129Z,14.70
2023-04-25T04:40:53.335Z,9.80
2023-04-25T04:43:46.700Z,7.28
2023-04-25T04:46:49.596Z,8.07
2023-04-25T04:49:53.566Z,7.88
2023-04-25T04:53:12.906Z,10.65
2023-04-25T04:56:18.186Z,10.82
2023-04-25T04:59:32.752Z,8.68
2023-04-25T05:02:28.321Z,9.52
2023-04-25T05:05:31.030Z,21.05
2023-04-25T05:08:55.986Z,9.25
2023-04-25T05:12:03.064Z,9.63
2023-04-25T05:15:07.969Z,5.43
2023-04-25T05:18:11.306Z,13.68
2023-04-25T05:21:17.428Z,13.77
2023-04-25T05:24:29.884Z,12.80
2023-04-25T05:27:31.386Z,14.65
2023-04-25T05:30:48.610Z,11.45
2023-04-25T05:33:55.316Z,11.55
2023-04-25T05:36:42.704Z,6.20
2023-04-25T05:39:28.947Z,12.05
2023-04-25T05:42:35.832Z,11.32
2023-04-25T05:45:42.062Z,6.35
2023-04-25T05:48:48.393Z,9.98
2023-04-25T05:51:53.424Z,11.65
2023-04-25T05:55:10.128Z,14.27
2023-04-25T05:57:57.391Z,10.00
2023-04-25T06:00:44.123Z,8.07
2023-04-25T06:03:31.175Z,7.85
2023-04-25T06:06:19.665Z,11.38
2023-04-25T06:09:06.622Z,12.77
2023-04-25T06:11:52.770Z,8.02
2023-04-25T06:14:39.245Z,7.13
2023-04-25T06:17:25.580Z,10.32
2023-04-25T06:20:13.262Z,10.60
2023-04-25T06:23:02.005Z,10.80
2023-04-25T06:26:11.046Z,16.52
2023-04-25T06:28:59.766Z,8.27
2023-04-25T06:31:46.298Z,15.38
2023-04-25T06:34:32.815Z,10.00
2023-04-25T06:37:19.390Z,6.75
2023-04-25T06:40:08.666Z,9.65
2023-04-25T06:42:55.318Z,10.40
2023-04-25T06:46:11.082Z,9.52
2023-04-25T06:49:03.065Z,9.32
2023-04-25T06:51:49.115Z,17.00
2023-04-25T06:54:35.532Z,14.73
2023-04-25T06:57:33.700Z,8.63
2023-04-25T07:00:37.524Z,10.80
2023-04-25T07:03:26.645Z,13.43
2023-04-25T07:06:22.391Z,6.95
2023-04-25T07:09:09.739Z,10.13
2023-04-25T07:12:02.736Z,10.32
2023-04-25T07:14:50.276Z,11.00
2023-04-25T07:17:46.504Z,17.95
2023-04-25T07:20:33.828Z,14.10
2023-04-25T07:23:21.263Z,8.57
2023-04-25T07:26:07.686Z,10.57
2023-04-25T07:28:55.513Z,8.18
2023-04-25T07:31:43.018Z,13.77
2023-04-25T07:34:31.020Z,8.07
2023-04-25T07:37:19.607Z,10.60
2023-04-25T07:40:19.611Z,11.50
2023-04-25T07:43:13.141Z,10.15
2023-04-25T07:46:07.296Z,8.13
2023-04-25T07:48:56.290Z,14.23
2023-04-25T07:51:44.208Z,13.95
2023-04-25T07:54:33.306Z,12.05
2023-04-25T07:57:26.134Z,17.40
2023-04-25T08:00:15.890Z,22.42
2023-04-25T08:03:07.894Z,6.95
2023-04-25T08:05:55.872Z,12.55
2023-04-25T08:08:44.942Z,4.28
2023-04-25T08:11:34.042Z,6.13
2023-04-25T08:14:20.746Z,8.93
2023-04-25T08:17:08.228Z,6.78
2023-04-25T08:20:00.205Z,8.63
2023-04-25T08:22:51.086Z,12.23
2023-04-25T08:26:04.315Z,8.68
2023-04-25T08:28:56.142Z,8.85
2023-04-25T08:31:42.675Z,5.00
2023-04-25T08:34:30.306Z,6.75
2023-04-25T08:37:20.659Z,5.38
2023-04-25T08:40:17.209Z,7.57
2023-04-25T08:43:16.116Z,6.38
2023-04-25T08:46:03.377Z,6.70
2023-04-25T08:49:03.994Z,8.85
2023-04-25T08:51:52.660Z,7.97
2023-04-25T08:54:45.538Z,8.50
2023-04-25T08:57:35.486Z,12.07
2023-04-25T09:00:24.243Z,7.88
2023-04-25T09:03:10.659Z,10.05
2023-04-25T09:05:57.769Z,7.97
2023-04-25T09:08:43.982Z,6.07
2023-04-25T09:11:30.805Z,7.35
2023-04-25T09:14:21.749Z,8.80
2023-04-25T09:17:34.680Z,11.75
2023-04-25T09:20:21.284Z,7.47
2023-04-25T09:23:08.128Z,11.32
2023-04-25T09:25:57.120Z,6.55
2023-04-25T09:28:44.032Z,6.22
2023-04-25T09:31:31.730Z,6.55
2023-04-25T09:34:21.974Z,6.28
2023-04-25T09:37:14.408Z,6.40
2023-04-25T09:40:32.787Z,4.50
2023-04-25T09:43:30.568Z,3.20
2023-04-25T09:46:18.279Z,4.18
2023-04-25T09:49:10.762Z,4.43
2023-04-25T09:52:18.617Z,5.20
2023-04-25T09:55:36.762Z,10.77
2023-04-25T09:58:25.833Z,3.75
2023-04-25T10:01:13.696Z,8.85
2023-04-25T10:04:15.884Z,6.35
2023-04-25T10:07:17.084Z,6.80
2023-04-25T10:10:06.999Z,4.35
2023-04-25T10:12:53.752Z,4.53
2023-04-25T10:15:41.258Z,3.95
2023-04-25T10:18:28.825Z,4.53
2023-04-25T10:21:17.954Z,6.03
2023-04-25T10:24:04.841Z,5.82
2023-04-25T10:26:52.022Z,3.90
2023-04-25T10:29:38.237Z,4.63
2023-04-25T10:32:24.375Z,3.60
2023-04-25T10:35:15.075Z,3.95
2023-04-25T10:38:05.983Z,5.35
2023-04-25T10:41:05.926Z,4.43
2023-04-25T10:44:02.077Z,9.25
2023-04-25T10:46:49.259Z,3.95
2023-04-25T10:49:36.531Z,6.95
2023-04-25T10:52:29.100Z,7.00
2023-04-25T10:55:17.027Z,6.13
2023-04-25T10:58:04.334Z,4.88
2023-04-25T11:00:57.619Z,5.35
2023-04-25T11:03:45.035Z,3.72
2023-04-25T11:06:43.665Z,7.93
2023-04-25T11:09:31.003Z,3.88
2023-04-25T11:12:18.956Z,5.70
2023-04-25T11:15:07.510Z,6.80
2023-04-25T11:17:54.304Z,7.15
2023-04-25T11:20:40.718Z,4.82
2023-04-25T11:23:28.060Z,4.05
2023-04-25T11:26:15.111Z,3.35
2023-04-25T11:29:02.720Z,5.30
2023-04-25T11:31:48.986Z,6.68
2023-04-25T11:34:35.723Z,5.13
2023-04-25T11:37:22.106Z,5.18
2023-04-25T11:40:10.539Z,5.38
2023-04-25T11:42:56.851Z,3.45
2023-04-25T11:45:48.411Z,5.22
2023-04-25T11:48:39.237Z,5.60
2023-04-25T11:51:26.354Z,4.93
2023-04-25T11:54:12.992Z,4.38
2023-04-25T11:56:59.391Z,7.60
2023-04-25T11:59:46.201Z,6.97
2023-04-25T12:02:36.807Z,4.55
2023-04-25T12:05:32.881Z,8.20
2023-04-25T12:08:19.792Z,4.95
2023-04-25T12:11:06.657Z,4.22
2023-04-25T12:13:54.407Z,5.57
2023-04-25T12:16:44.604Z,5.38
2023-04-25T12:19:36.340Z,9.57
2023-04-25T12:22:24.159Z,7.25
2023-04-25T12:25:11.302Z,5.32
2023-04-25T12:28:10.963Z,4.78
2023-04-25T12:30:59.895Z,3.67
2023-04-25T12:33:48.746Z,4.30
2023-04-25T12:36:36.532Z,7.25
2023-04-25T12:39:24.484Z,5.93
2023-04-25T12:42:13.022Z,4.35
2023-04-25T12:44:59.850Z,6.95
2023-04-25T12:47:46.756Z,5.68
2023-04-25T12:50:33.107Z,5.80
2023-04-25T12:53:21.891Z,6.50
2023-04-25T12:56:08.629Z,6.07
2023-04-25T12:58:55.411Z,4.22
2023-04-25T13:01:41.787Z,9.65
2023-04-25T13:04:28.077Z,4.93
2023-04-25T13:07:14.523Z,7.88
2023-04-25T13:10:03.757Z,12.95
2023-04-25T13:12:50.018Z,5.32
2023-04-25T13:15:36.763Z,8.00
2023-04-25T13:18:27.256Z,4.72
2023-04-25T13:21:13.634Z,3.83
2023-04-25T13:23:59.998Z,6.40
2023-04-25T13:26:47.726Z,4.55
2023-04-25T13:29:35.755Z,6.38
2023-04-25T13:32:21.779Z,5.32
2023-04-25T13:35:11.112Z,4.20
2023-04-25T13:37:58.062Z,3.55
2023-04-25T13:40:44.444Z,4.70
2023-04-25T13:43:34.849Z,3.38
2023-04-25T13:46:40.774Z,4.82
2023-04-25T13:49:27.754Z,4.63
2023-04-25T13:52:14.170Z,4.70
2023-04-25T13:55:01.191Z,5.97
2023-04-25T13:57:48.519Z,4.72
2023-04-25T14:00:41.270Z,5.55
2023-04-25T14:03:27.942Z,5.53
2023-04-25T14:06:14.647Z,4.20
2023-04-25T14:09:01.979Z,2.67
2023-04-25T14:11:48.525Z,3.67
2023-04-25T14:14:35.391Z,6.93
2023-04-25T14:17:23.438Z,7.97
2023-04-25T14:20:11.870Z,8.25
2023-04-25T14:22:59.186Z,4.05
2023-04-25T14:25:45.562Z,9.40
2023-04-25T14:28:31.999Z,6.32
2023-04-25T14:31:18.559Z,2.97
2023-04-25T14:34:07.177Z,4.45
2023-04-25T14:36:54.200Z,6.90
2023-04-25T14:39:41.393Z,7.55
2023-04-25T14:42:27.649Z,5.68
2023-04-25T14:45:14.056Z,4.32
2023-04-25T14:48:01.553Z,3.95
2023-04-25T14:50:49.135Z,8.73
2023-04-25T14:53:35.707Z,6.82
2023-04-25T14:56:22.246Z,4.82
2023-04-25T14:59:08.847Z,8.73
2023-04-25T15:01:56.673Z,8.93
2023-04-25T15:04:45.103Z,11.68
2023-04-25T15:07:32.775Z,4.07
2023-04-25T15:10:19.653Z,5.55
2023-04-25T15:13:06.115Z,6.82
2023-04-25T15:15:54.928Z,6.68
2023-04-25T15:18:41.601Z,7.72
2023-04-25T15:21:28.051Z,5.18
2023-04-25T15:24:17.062Z,5.22
2023-04-25T15:27:03.656Z,7.13
2023-04-25T15:29:49.963Z,6.97
2023-04-25T15:32:36.677Z,4.47
2023-04-25T15:35:22.840Z,9.40
2023-04-25T15:38:11.267Z,6.82
2023-04-25T15:41:02.611Z,10.40
2023-04-25T15:43:50.151Z,7.32
2023-04-25T15:46:36.630Z,8.27
2023-04-25T15:49:22.890Z,7.28
2023-04-25T15:52:09.184Z,6.03
2023-04-25T15:54:55.710Z,7.18
2023-04-25T15:57:43.515Z,5.53
2023-04-25T16:00:36.155Z,7.68
2023-04-25T16:03:23.785Z,11.45
2023-04-25T16:06:10.746Z,4.72
2023-04-25T16:08:57.586Z,6.28
2023-04-25T16:11:45.211Z,7.55
2023-04-25T16:14:34.101Z,4.85
2023-04-25T16:17:23.718Z,8.55
2023-04-25T16:20:13.242Z,8.60
2023-04-25T16:23:02.633Z,10.75
2023-04-25T16:25:50.444Z,6.20
2023-04-25T16:28:36.624Z,2.85
2023-04-25T16:31:24.324Z,4.60
2023-04-25T16:34:10.523Z,3.33
2023-04-25T16:36:57.774Z,5.13
2023-04-25T16:39:44.476Z,3.60
2023-04-25T16:42:30.687Z,2.70
2023-04-25T16:45:20.083Z,4.70
2023-04-25T16:48:07.760Z,3.10
2023-04-25T16:50:54.595Z,6.57
2023-04-25T16:53:41.464Z,5.32
2023-04-25T16:56:28.206Z,7.47
2023-04-25T16:59:14.453Z,7.25
2023-04-25T17:02:11.168Z,7.53
2023-04-25T17:04:58.963Z,11.05
2023-04-25T17:07:45.059Z,5.93
2023-04-25T17:10:57.262Z,6.60
2023-04-25T17:13:45.063Z,8.20
2023-04-25T17:16:36.309Z,5.03
2023-04-25T17:19:22.814Z,7.07
2023-04-25T17:22:10.598Z,6.90
2023-04-25T17:24:56.847Z,5.55
2023-04-25T17:27:43.213Z,3.55
2023-04-25T17:30:29.743Z,6.18
2023-04-25T17:33:16.025Z,5.95
2023-04-25T17:36:03.935Z,9.23
2023-04-25T17:38:52.084Z,4.13
2023-04-25T17:41:38.905Z,6.25
2023-04-25T17:44:26.326Z,6.30
2023-04-25T17:47:13.117Z,6.50
2023-04-25T17:50:01.948Z,7.13
2023-04-25T17:52:48.730Z,5.97
2023-04-25T17:55:36.793Z,4.95
2023-04-25T17:58:23.315Z,5.97
2023-04-25T18:01:09.347Z,8.52
2023-04-25T18:03:56.371Z,5.38
2023-04-25T18:06:43.136Z,5.45
2023-04-25T18:09:30.035Z,8.80
2023-04-25T18:12:18.323Z,9.27
2023-04-25T18:15:06.759Z,12.75
2023-04-25T18:17:53.404Z,12.20
2023-04-25T18:20:39.878Z,9.38
2023-04-25T18:23:26.691Z,7.82
2023-04-25T18:26:13.178Z,7.75
2023-04-25T18:29:01.454Z,7.15
2023-04-25T18:31:49.700Z,5.97
2023-04-25T18:34:36.374Z,8.95
2023-04-25T18:37:22.788Z,12.52
2023-04-25T18:40:13.616Z,7.40
2023-04-25T18:43:00.251Z,5.85
2023-04-25T18:45:48.368Z,7.72
2023-04-25T18:48:34.846Z,13.00
2023-04-25T18:51:22.723Z,10.13
2023-04-25T18:54:11.020Z,7.00
2023-04-25T18:56:58.245Z,9.32
2023-04-25T18:59:46.241Z,7.25
2023-04-25T19:02:34.171Z,8.32
2023-04-25T19:05:21.056Z,8.25
2023-04-25T19:08:07.740Z,14.50
2023-04-25T19:10:54.314Z,8.85
2023-04-25T19:13:40.785Z,10.68
2023-04-25T19:16:27.443Z,12.05
2023-04-25T19:19:15.591Z,9.23
2023-04-25T19:22:01.860Z,9.95
2023-04-25T19:24:53.019Z,6.72
2023-04-25T19:27:49.308Z,8.45
2023-04-25T19:30:35.968Z,12.07
2023-04-25T19:33:22.890Z,10.85
2023-04-25T19:36:10.814Z,7.18
2023-04-25T19:39:02.369Z,9.48
2023-04-25T19:41:48.721Z,7.38
2023-04-25T19:44:36.190Z,9.48
2023-04-25T19:47:23.820Z,8.57
2023-04-25T19:50:11.989Z,13.73
2023-04-25T19:52:59.774Z,13.38
2023-04-25T19:55:46.744Z,8.63
2023-04-25T19:58:35.282Z,6.22
2023-04-25T20:01:22.631Z,7.03
2023-04-25T20:04:09.487Z,11.20
2023-04-25T20:06:56.137Z,10.73
2023-04-25T20:09:43.627Z,11.43
2023-04-25T20:12:29.968Z,8.80
2023-04-25T20:15:18.717Z,10.35
2023-04-25T20:18:05.467Z,15.15
2023-04-25T20:20:52.690Z,10.15
2023-04-25T20:23:40.579Z,8.70
2023-04-25T20:26:28.479Z,8.55
2023-04-25T20:29:14.999Z,9.00
2023-04-25T20:32:03.439Z,10.60
2023-04-25T20:34:50.298Z,11.77
2023-04-25T20:37:37.494Z,12.15
2023-04-25T20:40:24.096Z,11.70
2023-04-25T20:43:12.665Z,11.85
2023-04-25T20:45:59.878Z,8.05
2023-04-25T20:48:46.571Z,12.88
2023-04-25T20:51:33.274Z,9.77
2023-04-25T20:54:19.669Z,14.80
2023-04-25T20:57:06.571Z,31.63
2023-04-25T20:59:54.240Z,10.48
2023-04-25T21:02:40.836Z,9.82
2023-04-25T21:05:26.981Z,10.30
2023-04-25T21:08:13.303Z,14.80
2023-04-25T21:10:59.734Z,6.10
2023-04-25T21:13:46.383Z,11.23
2023-04-25T21:16:35.465Z,6.53
2023-04-25T21:19:21.999Z,12.35
2023-04-25T21:22:08.038Z,9.50
2023-04-25T21:24:57.004Z,8.07
2023-04-25T21:27:43.450Z,11.55
2023-04-25T21:30:29.899Z,10.02
2023-04-25T21:33:18.333Z,12.73
2023-04-25T21:36:05.194Z,16.25
2023-04-25T21:38:51.470Z,10.00
2023-04-25T21:41:38.413Z,10.98
2023-04-25T21:44:25.043Z,16.92
2023-04-25T21:47:11.237Z,15.13
2023-04-25T21:49:59.359Z,15.10
2023-04-25T21:52:46.206Z,21.20
2023-04-25T21:55:32.627Z,15.02
2023-04-25T21:58:19.567Z,15.68
2023-04-25T22:01:05.864Z,24.35
2023-04-25T22:03:52.584Z,18.08
2023-04-25T22:06:40.484Z,12.43
2023-04-25T22:09:27.121Z,18.00
2023-04-25T22:12:13.955Z,13.77
2023-04-25T22:15:00.252Z,15.27
2023-04-25T22:17:47.056Z,14.60
2023-04-25T22:20:33.452Z,22.75
2023-04-25T22:23:21.152Z,17.35
2023-04-25T22:26:07.633Z,15.95
2023-04-25T22:28:53.935Z,13.95
2023-04-25T22:31:40.922Z,10.63
2023-04-25T22:34:27.307Z,13.60
2023-04-25T22:37:13.899Z,13.85
2023-04-25T22:40:01.647Z,21.10
2023-04-25T22:42:47.626Z,11.07
2023-04-25T22:45:35.750Z,10.98
2023-04-25T22:48:21.960Z,12.52
2023-04-25T22:51:08.425Z,19.63
2023-04-25T22:53:56.141Z,16.67
2023-04-25T22:56:43.916Z,13.35
2023-04-25T22:59:30.012Z,11.65
2023-04-25T23:02:16.256Z,13.57
2023-04-25T23:05:02.560Z,16.17
2023-04-25T23:07:49.379Z,15.10
2023-04-25T23:10:36.960Z,18.40
2023-04-25T23:13:24.760Z,13.13
2023-04-25T23:16:12.466Z,14.88
2023-04-25T23:18:58.872Z,15.00
2023-04-25T23:21:45.247Z,17.58
2023-04-25T23:24:31.708Z,13.35
2023-04-25T23:27:18.235Z,15.43
2023-04-25T23:30:07.127Z,14.88
2023-04-25T23:32:53.539Z,18.92
2023-04-25T23:35:39.740Z,21.88
2023-04-25T23:38:25.895Z,20.20
2023-04-25T23:41:12.702Z,18.20
2023-04-25T23:43:58.948Z,21.30
2023-04-25T23:46:46.471Z,23.27
2023-04-25T23:49:33.574Z,16.40
2023-04-25T23:52:19.685Z,20.63
2023-04-25T23:55:07.085Z,16.25
2023-04-25T23:57:53.269Z,18.02
